Time;durP1;ratioP1;P1;durP2;ratioP2;P2;SDS_P1;SDS_P2;PMS_P1;PMS_P2;Temp;Humidity;BMP_temperature;BMP_pressure;BME280_temperature;BME280_humidity;BME280_pressure;Samples;Min_cycle;Max_cycle;Signal;HPM_P1;HPM_P2
2023/04/13 13:50:28;;;;;;;2.05;1.60;;;14.50;65.90;;;;;;5112221;27;20372;-52
2023/04/13 13:52:54;;;;;;;3.92;1.67;;;14.40;65.70;;;;;;5112505;28;20024;-59
2023/04/13 13:55:21;;;;;;;3.50;1.70;;;14.40;65.10;;;;;;5112366;28;20027;-49
2023/04/13 13:57:48;;;;;;;4.22;1.85;;;14.30;65.10;;;;;;5112677;28;20433;-52
2023/04/13 14:00:18;;;;;;;2.67;2.00;;;14.20;65.20;;;;;;5111240;28;20077;-52
2023/04/13 14:02:45;;;;;;;4.35;2.45;;;14.20;65.40;;;;;;5111988;28;20046;-59
2023/04/13 14:07:10;;;;;;;4.03;2.20;;;14.10;65.80;;;;;;5112554;27;20906;-60
2023/04/13 14:09:39;;;;;;;5.07;2.50;;;13.90;65.70;;;;;;5112337;28;20036;-64
2023/04/13 14:12:05;;;;;;;9.43;3.28;;;13.60;65.60;;;;;;5112154;28;20027;-63
2023/04/13 14:14:31;;;;;;;6.88;2.95;;;13.20;65.90;;;;;;5111329;28;20024;-64
2023/04/13 14:16:56;;;;;;;5.97;2.20;;;12.90;66.10;;;;;;5112045;28;20393;-64
2023/04/13 14:19:22;;;;;;;4.93;1.80;;;12.50;66.50;;;;;;5112572;28;20032;-64
2023/04/13 14:21:49;;;;;;;5.03;1.92;;;12.20;66.90;;;;;;5111274;28;20020;-65
2023/04/13 14:24:15;;;;;;;7.63;3.35;;;11.90;67.30;;;;;;5112338;28;20394;-64
2023/04/13 14:26:41;;;;;;;7.03;2.72;;;11.70;67.70;;;;;;5112312;28;20023;-65
2023/04/13 14:29:07;;;;;;;6.07;2.90;;;11.40;68.20;;;;;;5113000;28;20103;-64
2023/04/13 14:31:34;;;;;;;8.20;3.65;;;11.30;68.50;;;;;;5112658;28;20039;-64
2023/04/13 14:34:00;;;;;;;6.32;2.78;;;11.10;68.90;;;;;;5112704;28;20073;-64
2023/04/13 14:36:26;;;;;;;4.93;2.78;;;11.00;69.10;;;;;;5111608;28;20514;-64
2023/04/13 14:38:52;;;;;;;4.43;2.20;;;10.90;69.30;;;;;;5112576;28;20028;-64
2023/04/13 14:41:18;;;;;;;3.95;2.45;;;10.90;69.80;;;;;;5112686;28;20024;-64
2023/04/13 14:43:44;;;;;;;5.57;2.13;;;10.80;70.60;;;;;;5112462;28;20032;-64
2023/04/13 14:46:10;;;;;;;3.13;2.13;;;10.70;71.50;;;;;;5112670;28;20028;-64
2023/04/13 14:48:36;;;;;;;3.60;1.98;;;10.60;71.90;;;;;;5112632;28;20024;-64
2023/04/13 14:51:02;;;;;;;7.10;3.08;;;10.50;72.30;;;;;;5111293;28;20051;-64
2023/04/13 14:53:28;;;;;;;11.25;6.35;;;10.40;72.80;;;;;;5112606;28;20058;-64
2023/04/13 14:55:56;;;;;;;7.18;3.50;;;10.30;73.00;;;;;;5112816;28;20097;-64
2023/04/13 14:58:21;;;;;;;4.63;2.63;;;10.20;73.50;;;;;;5112438;28;20031;-64
2023/04/13 15:00:48;;;;;;;5.75;3.63;;;10.20;74.00;;;;;;5112104;28;20035;-64
2023/04/13 15:03:14;;;;;;;6.63;2.90;;;10.10;74.40;;;;;;5112392;28;20023;-64
2023/04/13 15:05:45;;;;;;;5.50;2.50;;;10.00;75.10;;;;;;5111748;28;20046;-64
2023/04/13 15:08:14;;;;;;;4.63;2.78;;;10.10;76.10;;;;;;5112037;28;20451;-63
2023/04/13 15:10:41;;;;;;;6.57;2.78;;;10.00;76.40;;;;;;5111895;28;20035;-64
2023/04/13 15:13:07;;;;;;;3.00;2.03;;;9.90;76.20;;;;;;5111882;28;20024;-64
2023/04/13 15:15:35;;;;;;;5.78;2.42;;;9.90;76.20;;;;;;5112124;28;20050;-64
2023/04/13 15:18:02;;;;;;;4.78;2.67;;;9.80;76.30;;;;;;5100984;28;20133;-63
2023/04/13 15:20:28;;;;;;;5.00;3.20;;;9.80;76.50;;;;;;5098583;28;20055;-64
2023/04/13 15:22:55;;;;;;;4.88;3.40;;;9.80;76.90;;;;;;5097189;28;20032;-64
2023/04/13 15:25:21;;;;;;;7.70;3.00;;;9.80;77.50;;;;;;5098604;28;20036;-64
2023/04/13 15:27:51;;;;;;;5.45;3.53;;;9.90;77.50;;;;;;5097432;28;20032;-64
2023/04/13 15:30:28;;;;;;;3.20;2.10;;;9.80;77.40;;;;;;5097939;28;20054;-64
2023/04/13 15:32:55;;;;;;;3.25;1.98;;;9.80;77.60;;;;;;5098573;28;20077;-64
2023/04/13 15:35:23;;;;;;;2.80;1.20;;;9.80;77.40;;;;;;5098209;28;20089;-64
2023/04/13 15:37:49;;;;;;;2.40;1.40;;;9.90;77.40;;;;;;5097948;28;20085;-64
2023/04/13 15:40:17;;;;;;;2.60;1.70;;;9.80;77.20;;;;;;5097699;28;20020;-64
2023/04/13 15:42:42;;;;;;;3.53;1.95;;;9.80;77.00;;;;;;5098316;28;20363;-64
2023/04/13 15:45:09;;;;;;;3.22;2.10;;;9.70;77.10;;;;;;5097724;28;20035;-64
2023/04/13 15:47:35;;;;;;;5.50;3.33;;;9.80;77.10;;;;;;5097642;28;20070;-64
2023/04/13 15:50:03;;;;;;;4.35;3.40;;;9.80;77.30;;;;;;5098128;28;20020;-64
2023/04/13 15:52:31;;;;;;;7.43;3.28;;;9.70;77.20;;;;;;5097888;28;20024;-64
2023/04/13 15:54:57;;;;;;;3.28;2.47;;;9.70;77.30;;;;;;5097577;28;20449;-64
2023/04/13 15:57:23;;;;;;;4.65;2.22;;;9.80;77.40;;;;;;5098027;28;20073;-64
2023/04/13 15:59:49;;;;;;;6.05;3.17;;;9.80;77.30;;;;;;5097442;28;20024;-64
2023/04/13 16:02:15;;;;;;;3.88;2.47;;;9.70;77.40;;;;;;5097609;28;20046;-65
2023/04/13 16:04:41;;;;;;;6.43;3.25;;;9.70;77.10;;;;;;5097498;28;20112;-64
2023/04/13 16:07:07;;;;;;;5.85;2.90;;;9.70;77.30;;;;;;5097072;28;20558;-66
2023/04/13 16:09:33;;;;;;;6.32;2.75;;;9.70;77.30;;;;;;5097336;28;20445;-66
2023/04/13 16:12:06;;;;;;;4.13;2.80;;;9.60;77.60;;;;;;5096956;28;20028;-65
2023/04/13 16:14:38;;;;;;;5.63;3.25;;;9.60;77.70;;;;;;5097377;28;20099;-65
2023/04/13 16:17:10;;;;;;;10.80;4.63;;;9.60;78.00;;;;;;5096068;28;20032;-65
2023/04/13 16:19:38;;;;;;;7.20;3.83;;;9.60;78.40;;;;;;5097317;28;20038;-65
2023/04/13 16:22:04;;;;;;;7.22;3.95;;;9.50;78.60;;;;;;5095856;28;20257;-66
2023/04/13 16:24:36;;;;;;;7.55;3.80;;;9.50;78.70;;;;;;5095907;28;20488;-65
2023/04/13 16:27:02;;;;;;;4.97;3.10;;;9.50;79.10;;;;;;5096722;28;20518;-65
2023/04/13 16:29:28;;;;;;;3.33;2.28;;;9.50;78.70;;;;;;5095848;28;20028;-64
2023/04/13 16:31:55;;;;;;;3.17;2.35;;;9.50;78.00;;;;;;5096553;28;20085;-65
2023/04/13 16:34:22;;;;;;;4.72;2.50;;;9.40;77.70;;;;;;5096599;28;20069;-64
2023/04/13 16:36:49;;;;;;;3.40;2.30;;;9.40;77.40;;;;;;5095640;28;20291;-66
2023/04/13 16:39:15;;;;;;;4.32;2.53;;;9.30;77.20;;;;;;5096052;28;20032;-64
2023/04/13 16:41:41;;;;;;;4.60;2.20;;;9.30;76.90;;;;;;5096464;28;20307;-64
2023/04/13 16:44:07;;;;;;;3.95;2.20;;;9.20;76.50;;;;;;5096735;28;20073;-65
2023/04/13 16:46:34;;;;;;;3.15;1.88;;;9.10;76.20;;;;;;5096953;28;20050;-65
2023/04/13 16:49:00;;;;;;;4.25;1.92;;;9.10;76.30;;;;;;5096885;28;20405;-65
2023/04/13 16:51:26;;;;;;;5.97;2.50;;;9.10;76.10;;;;;;5096341;28;20032;-65
2023/04/13 16:53:53;;;;;;;2.63;1.85;;;9.00;76.10;;;;;;5096169;28;20441;-66
2023/04/13 16:56:20;;;;;;;1.30;1.20;;;9.00;76.10;;;;;;5096481;28;20383;-65
2023/04/13 16:58:47;;;;;;;1.80;1.50;;;8.90;76.10;;;;;;5096421;28;20080;-65
2023/04/13 17:01:13;;;;;;;3.10;1.52;;;8.90;76.10;;;;;;5096359;28;20051;-65
2023/04/13 17:03:39;;;;;;;2.20;1.30;;;8.90;76.00;;;;;;5096335;28;20036;-66
2023/04/13 17:06:06;;;;;;;1.27;1.15;;;8.90;75.80;;;;;;5095737;28;20438;-66
2023/04/13 17:08:31;;;;;;;3.20;1.80;;;8.90;75.80;;;;;;5096210;28;20028;-65
2023/04/13 17:10:58;;;;;;;3.22;1.80;;;8.90;75.70;;;;;;5094922;28;20089;-67
2023/04/13 17:13:24;;;;;;;3.03;1.85;;;8.90;75.80;;;;;;5096184;28;20032;-66
2023/04/13 17:15:50;;;;;;;6.38;2.15;;;8.90;75.70;;;;;;5096217;28;20024;-66
2023/04/13 17:18:16;;;;;;;4.65;2.20;;;8.90;75.80;;;;;;5094863;28;20043;-66
2023/04/13 17:20:42;;;;;;;3.92;1.90;;;8.90;76.00;;;;;;5095704;28;20107;-65
2023/04/13 17:23:08;;;;;;;3.03;2.03;;;8.80;76.00;;;;;;5095990;28;20062;-65
2023/04/13 17:25:39;;;;;;;3.40;2.80;;;8.90;76.20;;;;;;5095693;28;20024;-67
2023/04/13 17:28:06;;;;;;;4.50;2.78;;;8.80;76.40;;;;;;5095646;28;20085;-66
2023/04/13 17:30:32;;;;;;;4.63;2.35;;;8.80;76.60;;;;;;5095880;28;20055;-66
2023/04/13 17:32:58;;;;;;;2.78;2.50;;;8.80;76.60;;;;;;5095627;28;20043;-66
2023/04/13 17:35:24;;;;;;;1.98;1.70;;;8.80;76.50;;;;;;5095776;28;20020;-66
2023/04/13 17:37:50;;;;;;;1.92;1.60;;;8.80;76.10;;;;;;5095503;28;20441;-66
2023/04/13 17:40:16;;;;;;;3.53;2.10;;;8.80;75.70;;;;;;5094375;28;20039;-66
2023/04/13 17:42:42;;;;;;;5.80;2.30;;;8.80;75.20;;;;;;5095498;28;20437;-66
2023/04/13 17:45:08;;;;;;;8.30;3.30;;;8.80;74.80;;;;;;5095756;28;20028;-66
2023/04/13 17:47:34;;;;;;;7.88;3.40;;;8.70;74.80;;;;;;5095395;28;20510;-65
2023/04/13 17:50:00;;;;;;;3.78;2.10;;;8.70;74.90;;;;;;5095817;28;20353;-66
2023/04/13 17:52:26;;;;;;;10.63;3.97;;;8.70;75.00;;;;;;5095388;28;20039;-66
2023/04/13 17:54:52;;;;;;;8.70;3.58;;;8.60;75.10;;;;;;5095862;28;20020;-65
2023/04/13 17:57:18;;;;;;;12.75;4.93;;;8.60;75.20;;;;;;5095549;28;20422;-65
2023/04/13 17:59:45;;;;;;;9.10;4.60;;;8.60;75.30;;;;;;5095281;28;20057;-66
2023/04/13 18:02:12;;;;;;;7.93;4.28;;;8.60;75.40;;;;;;5095498;28;20024;-64
2023/04/13 18:04:38;;;;;;;8.95;4.30;;;8.60;75.50;;;;;;5095153;28;20055;-65
2023/04/13 18:07:05;;;;;;;11.00;5.20;;;8.60;75.60;;;;;;5095025;28;20079;-65
2023/04/13 18:09:31;;;;;;;9.85;5.05;;;8.60;75.80;;;;;;5095184;28;20185;-65
2023/04/13 18:11:57;;;;;;;7.85;4.57;;;8.60;75.80;;;;;;5095156;28;20331;-64
2023/04/13 18:14:23;;;;;;;3.50;2.78;;;8.60;76.00;;;;;;5095694;28;20460;-64
2023/04/13 18:16:49;;;;;;;3.75;2.60;;;8.70;76.10;;;;;;5095707;28;20027;-65
2023/04/13 18:19:15;;;;;;;3.83;2.70;;;8.70;76.30;;;;;;5095440;28;20456;-64
2023/04/13 18:21:40;;;;;;;3.75;2.22;;;8.70;76.20;;;;;;5093310;28;20043;-64
2023/04/13 18:24:06;;;;;;;5.35;2.72;;;8.70;76.10;;;;;;5093384;28;20025;-66
2023/04/13 18:26:32;;;;;;;3.20;2.53;;;8.80;76.10;;;;;;5094628;28;20109;-66
2023/04/13 18:28:58;;;;;;;3.17;2.40;;;8.80;76.00;;;;;;5094552;28;20056;-66
2023/04/13 18:31:24;;;;;;;2.88;2.15;;;8.70;76.10;;;;;;5094306;28;20052;-67
2023/04/13 18:33:49;;;;;;;3.60;2.55;;;8.80;76.00;;;;;;5094964;28;20020;-68
2023/04/13 18:36:16;;;;;;;3.40;2.67;;;8.80;75.90;;;;;;5094866;28;20039;-65
2023/04/13 18:38:43;;;;;;;4.18;2.67;;;8.80;75.90;;;;;;5094979;28;20024;-64
2023/04/13 18:41:09;;;;;;;4.13;2.72;;;8.70;76.00;;;;;;5094780;28;20024;-67
2023/04/13 18:43:35;;;;;;;3.45;2.22;;;8.80;76.00;;;;;;5095185;28;20024;-67
2023/04/13 18:46:01;;;;;;;3.42;2.75;;;8.70;76.00;;;;;;5094906;28;20042;-69
2023/04/13 18:48:27;;;;;;;2.83;2.13;;;8.70;76.00;;;;;;5095450;28;20016;-67
2023/04/13 18:50:53;;;;;;;2.97;2.25;;;8.70;76.00;;;;;;5095062;28;20492;-63
2023/04/13 18:53:19;;;;;;;5.30;3.30;;;8.70;76.00;;;;;;5097638;28;20099;-66
2023/04/13 18:55:49;;;;;;;5.85;3.95;;;8.80;76.10;;;;;;5098590;28;20028;-65
2023/04/13 18:58:19;;;;;;;7.20;3.70;;;8.80;76.00;;;;;;5098898;28;20020;-67
2023/04/13 19:00:46;;;;;;;3.20;2.40;;;8.90;76.00;;;;;;5098763;28;20040;-66
2023/04/13 19:03:13;;;;;;;3.42;2.20;;;8.90;75.60;;;;;;5098766;28;20024;-66
2023/04/13 19:05:39;;;;;;;3.03;2.50;;;9.00;74.80;;;;;;5098166;28;20052;-68
2023/04/13 19:08:08;;;;;;;3.20;2.22;;;9.20;74.50;;;;;;5098458;28;20099;-66
2023/04/13 19:10:34;;;;;;;2.20;1.70;;;9.10;74.50;;;;;;5097414;28;20032;-67
2023/04/13 19:13:00;;;;;;;2.08;1.60;;;9.00;74.40;;;;;;5098332;28;20024;-66
2023/04/13 19:15:27;;;;;;;4.05;1.92;;;9.00;74.20;;;;;;5098869;28;20070;-66
2023/04/13 19:17:56;;;;;;;2.60;2.30;;;9.00;74.10;;;;;;5098232;28;20027;-68
2023/04/13 19:20:23;;;;;;;2.88;2.10;;;8.90;74.10;;;;;;5097525;28;20440;-67
2023/04/13 19:22:52;;;;;;;2.90;2.13;;;8.90;74.20;;;;;;5096928;28;20039;-68
2023/04/13 19:25:19;;;;;;;2.28;2.08;;;8.90;74.20;;;;;;5095545;28;20028;-67
2023/04/13 19:27:46;;;;;;;6.30;4.22;;;8.90;74.30;;;;;;5096741;28;20008;-66
2023/04/13 19:30:13;;;;;;;3.13;2.10;;;8.90;74.30;;;;;;5096542;28;20437;-66
2023/04/13 19:32:42;;;;;;;2.92;2.22;;;8.90;74.30;;;;;;5095599;28;20004;-68
2023/04/13 19:35:09;;;;;;;2.45;2.00;;;8.90;74.50;;;;;;5096553;28;20024;-69
2023/04/13 19:37:36;;;;;;;4.90;3.20;;;8.90;74.60;;;;;;5093784;28;20449;-67
2023/04/13 19:40:08;;;;;;;9.13;4.90;;;8.90;74.80;;;;;;5097108;28;20096;-65
2023/04/13 19:42:35;;;;;;;6.18;3.60;;;8.90;74.80;;;;;;5097619;28;20466;-66
2023/04/13 19:45:01;;;;;;;5.72;3.17;;;8.90;74.90;;;;;;5097700;28;20099;-67
2023/04/13 19:47:27;;;;;;;4.25;2.72;;;8.90;75.00;;;;;;5097650;28;20020;-66
2023/04/13 19:49:53;;;;;;;7.15;3.05;;;8.90;75.00;;;;;;5097508;28;20107;-65
2023/04/13 19:52:19;;;;;;;3.90;2.40;;;8.90;75.10;;;;;;5096555;28;20027;-64
2023/04/13 19:54:46;;;;;;;4.07;2.67;;;8.90;75.10;;;;;;5097288;28;20051;-67
2023/04/13 19:57:12;;;;;;;3.45;2.70;;;8.90;75.30;;;;;;5097667;28;20085;-66
2023/04/13 19:59:39;;;;;;;5.70;2.65;;;8.80;75.30;;;;;;5097698;28;20028;-66
2023/04/13 20:02:06;;;;;;;5.57;2.72;;;8.90;75.40;;;;;;5097348;28;20441;-66
2023/04/13 20:04:33;;;;;;;3.60;2.40;;;8.90;75.50;;;;;;5095939;28;20078;-66
2023/04/13 20:07:00;;;;;;;4.85;2.65;;;8.90;75.60;;;;;;5097067;28;20052;-66
2023/04/13 20:09:26;;;;;;;3.92;2.78;;;8.80;75.60;;;;;;5079490;28;20098;-66
2023/04/13 20:11:52;;;;;;;4.70;2.70;;;8.90;75.70;;;;;;5097144;28;20458;-67
2023/04/13 20:14:18;;;;;;;3.80;2.67;;;8.90;75.70;;;;;;5096260;28;20099;-66
2023/04/13 20:16:44;;;;;;;6.10;3.35;;;8.80;75.60;;;;;;5097426;28;20017;-66
2023/04/13 20:19:09;;;;;;;4.53;3.20;;;8.90;75.80;;;;;;5097101;28;20024;-65
2023/04/13 20:21:36;;;;;;;4.97;3.05;;;8.90;75.80;;;;;;5097032;28;20102;-66
2023/04/13 20:24:02;;;;;;;5.57;2.83;;;8.90;75.90;;;;;;5096593;28;20114;-65
2023/04/13 20:26:30;;;;;;;4.68;2.92;;;8.90;75.80;;;;;;5095049;28;20035;-66
2023/04/13 20:29:02;;;;;;;3.42;2.67;;;8.80;75.80;;;;;;5095208;28;20024;-65
2023/04/13 20:31:29;;;;;;;6.78;3.60;;;8.80;75.90;;;;;;5096081;28;20036;-66
2023/04/13 20:33:55;;;;;;;6.03;2.60;;;8.90;76.00;;;;;;5095213;28;20032;-66
2023/04/13 20:36:23;;;;;;;4.18;2.72;;;8.80;76.00;;;;;;5096016;28;20405;-67
2023/04/13 20:38:53;;;;;;;5.22;2.70;;;8.80;75.90;;;;;;5096050;28;20031;-65
2023/04/13 20:41:20;;;;;;;4.88;2.95;;;8.80;75.80;;;;;;5096586;28;20020;-66
2023/04/13 20:43:49;;;;;;;6.00;3.28;;;8.80;75.80;;;;;;5096602;28;20024;-66
2023/04/13 20:46:15;;;;;;;5.47;3.22;;;8.90;75.90;;;;;;5096498;28;20354;-66
2023/04/13 20:48:42;;;;;;;7.13;4.45;;;8.80;76.00;;;;;;5095499;28;20089;-66
2023/04/13 20:51:08;;;;;;;4.85;3.55;;;8.80;75.80;;;;;;5096643;28;20028;-66
2023/04/13 20:53:36;;;;;;;6.45;3.60;;;8.80;75.80;;;;;;5096391;28;20024;-66
2023/04/13 20:56:03;;;;;;;5.00;3.42;;;8.80;75.80;;;;;;5095398;28;20040;-66
2023/04/13 20:58:31;;;;;;;8.23;4.65;;;8.80;75.80;;;;;;5096589;28;20349;-66
2023/04/13 21:00:57;;;;;;;8.32;5.25;;;8.80;75.70;;;;;;5096199;28;20032;-67
2023/04/13 21:03:25;;;;;;;7.20;4.63;;;8.80;75.70;;;;;;5096778;28;20027;-66
2023/04/13 21:05:51;;;;;;;8.02;4.55;;;8.80;75.70;;;;;;5096032;28;20526;-66
2023/04/13 21:08:17;;;;;;;9.13;5.80;;;8.80;75.80;;;;;;5096062;28;20051;-66
2023/04/13 21:10:43;;;;;;;9.35;6.13;;;8.70;75.90;;;;;;5096549;28;20097;-66
2023/04/13 21:13:10;;;;;;;10.23;5.78;;;8.70;75.90;;;;;;5096576;28;20437;-66
2023/04/13 21:15:36;;;;;;;8.05;5.25;;;8.70;76.00;;;;;;5096210;28;20402;-66
2023/04/13 21:18:02;;;;;;;8.25;5.10;;;8.60;76.10;;;;;;5096478;28;20067;-66
2023/04/13 21:20:28;;;;;;;8.68;5.40;;;8.60;76.20;;;;;;5096114;28;20456;-66
2023/04/13 21:22:54;;;;;;;10.35;4.90;;;8.60;76.30;;;;;;5096142;28;20020;-66
2023/04/13 21:25:20;;;;;;;11.02;6.07;;;8.60;76.30;;;;;;5095784;28;20081;-66
2023/04/13 21:27:46;;;;;;;10.05;6.05;;;8.60;76.30;;;;;;5096378;28;20024;-66
2023/04/13 21:30:12;;;;;;;10.20;6.10;;;8.60;76.30;;;;;;5096007;28;20400;-67
2023/04/13 21:32:39;;;;;;;9.15;5.65;;;8.60;76.20;;;;;;5096001;28;20482;-66
2023/04/13 21:35:06;;;;;;;9.57;5.43;;;8.60;76.30;;;;;;5095992;28;20016;-66
2023/04/13 21:37:32;;;;;;;12.27;5.45;;;8.60;76.30;;;;;;5095963;28;20038;-66
2023/04/13 21:39:58;;;;;;;7.10;5.20;;;8.60;76.30;;;;;;5095855;28;20366;-66
2023/04/13 21:42:24;;;;;;;8.15;5.43;;;8.60;76.20;;;;;;5095631;28;20020;-66
2023/04/13 21:44:50;;;;;;;7.35;4.90;;;8.60;76.30;;;;;;5095876;28;20445;-67
2023/04/13 21:47:16;;;;;;;7.80;4.88;;;8.60;76.40;;;;;;5095462;28;20035;-66
2023/04/13 21:49:42;;;;;;;8.77;5.38;;;8.60;76.50;;;;;;5095524;28;20031;-66
2023/04/13 21:52:08;;;;;;;8.85;5.25;;;8.60;76.40;;;;;;5095486;28;20041;-67
2023/04/13 21:54:35;;;;;;;8.05;5.32;;;8.60;76.50;;;;;;5095697;28;20024;-66
2023/04/13 21:57:00;;;;;;;8.45;5.22;;;8.60;76.60;;;;;;5095934;28;20040;-66
2023/04/13 21:59:26;;;;;;;8.95;5.53;;;8.60;76.60;;;;;;5095455;28;20084;-66
2023/04/13 22:01:53;;;;;;;8.30;5.32;;;8.70;76.70;;;;;;5095366;28;20430;-66
2023/04/13 22:04:19;;;;;;;8.82;5.63;;;8.70;76.70;;;;;;5094429;28;20361;-66
2023/04/13 22:06:45;;;;;;;7.50;5.07;;;8.70;76.80;;;;;;5095070;28;20089;-66
2023/04/13 22:09:11;;;;;;;8.90;4.93;;;8.60;76.80;;;;;;5095570;28;20016;-66
2023/04/13 22:11:38;;;;;;;7.55;4.93;;;8.70;76.80;;;;;;5095307;28;20072;-67
2023/04/13 22:14:04;;;;;;;7.13;4.78;;;8.60;76.80;;;;;;5095194;28;20024;-66
2023/04/13 22:16:31;;;;;;;5.90;4.05;;;8.60;76.80;;;;;;5095212;28;20380;-66
2023/04/13 22:18:56;;;;;;;7.15;4.13;;;8.60;76.80;;;;;;5095245;28;20142;-66
2023/04/13 22:21:22;;;;;;;8.57;4.50;;;8.60;76.80;;;;;;5095188;28;20070;-67
2023/04/13 22:23:48;;;;;;;7.15;4.20;;;8.70;76.70;;;;;;5095235;28;20035;-66
2023/04/13 22:26:14;;;;;;;5.40;3.58;;;8.70;76.70;;;;;;5095357;28;20028;-66
2023/04/13 22:28:40;;;;;;;5.00;3.50;;;8.70;76.60;;;;;;5099012;28;20091;-66
2023/04/13 22:31:07;;;;;;;4.95;3.38;;;8.70;76.70;;;;;;5099422;28;20055;-67
2023/04/13 22:33:39;;;;;;;3.60;2.72;;;8.70;76.60;;;;;;5098628;28;20156;-66
2023/04/13 22:36:06;;;;;;;3.75;2.40;;;8.60;76.60;;;;;;5099149;28;20043;-67
2023/04/13 22:38:31;;;;;;;3.03;2.05;;;8.70;76.70;;;;;;5099343;28;20024;-66
2023/04/13 22:40:57;;;;;;;2.70;1.88;;;8.60;76.60;;;;;;5099529;28;20383;-66
2023/04/13 22:43:24;;;;;;;2.92;1.83;;;8.60;76.60;;;;;;5099514;28;20082;-66
2023/04/13 22:45:57;;;;;;;2.15;1.77;;;8.60;76.60;;;;;;5098921;28;20429;-66
2023/04/13 22:48:23;;;;;;;2.10;1.50;;;8.60;76.60;;;;;;5098869;28;20322;-66
2023/04/13 22:50:50;;;;;;;1.88;1.50;;;8.60;76.60;;;;;;5097869;28;20027;-66
2023/04/13 22:53:16;;;;;;;1.70;1.35;;;8.60;76.60;;;;;;5099095;28;20034;-66
2023/04/13 22:55:42;;;;;;;1.88;1.48;;;8.60;76.70;;;;;;5098750;28;20111;-67
2023/04/13 22:58:08;;;;;;;1.10;1.00;;;8.60;76.70;;;;;;5098766;28;20100;-66
2023/04/13 23:00:34;;;;;;;1.35;1.25;;;8.60;76.80;;;;;;5098619;28;20056;-66
2023/04/13 23:02:59;;;;;;;1.70;1.10;;;8.60;76.70;;;;;;5098935;28;20091;-66
2023/04/13 23:05:25;;;;;;;1.17;1.08;;;8.60;76.70;;;;;;5098457;28;20057;-66
2023/04/13 23:07:51;;;;;;;0.70;0.70;;;8.60;76.70;;;;;;5098607;28;20445;-67
2023/04/13 23:10:17;;;;;;;0.90;0.90;;;8.60;76.80;;;;;;5098663;28;20024;-67
2023/04/13 23:12:44;;;;;;;1.20;1.10;;;8.60;76.70;;;;;;5098447;28;20555;-66
2023/04/13 23:15:11;;;;;;;1.10;0.80;;;8.60;76.70;;;;;;5098444;28;20051;-67
2023/04/13 23:17:37;;;;;;;2.05;0.80;;;8.60;76.80;;;;;;5098330;28;20032;-67
2023/04/13 23:20:05;;;;;;;1.13;0.93;;;8.60;76.80;;;;;;5098771;28;20030;-66
2023/04/13 23:22:32;;;;;;;1.05;0.93;;;8.60;76.80;;;;;;5098261;28;20020;-66
2023/04/13 23:24:58;;;;;;;1.13;1.00;;;8.60;76.70;;;;;;5098837;28;20020;-66
2023/04/13 23:27:24;;;;;;;1.75;1.00;;;8.60;76.80;;;;;;5098229;28;20036;-67
2023/04/13 23:29:50;;;;;;;1.30;1.20;;;8.60;76.80;;;;;;5097860;28;20044;-66
2023/04/13 23:32:16;;;;;;;1.63;1.45;;;8.60;76.80;;;;;;5098021;28;20066;-67
2023/04/13 23:34:42;;;;;;;1.27;1.17;;;8.60;76.80;;;;;;5098329;28;20046;-66
2023/04/13 23:37:08;;;;;;;1.60;1.50;;;8.60;76.80;;;;;;5098246;28;20021;-66
2023/04/13 23:39:34;;;;;;;1.83;1.50;;;8.60;76.80;;;;;;5097471;28;20364;-66
2023/04/13 23:42:00;;;;;;;1.50;1.40;;;8.60;76.80;;;;;;5098104;28;20035;-67
2023/04/13 23:44:26;;;;;;;1.75;1.50;;;8.60;76.80;;;;;;5097864;28;20036;-66
2023/04/13 23:46:53;;;;;;;2.33;1.30;;;8.60;76.90;;;;;;5098249;28;20028;-67
2023/04/13 23:49:18;;;;;;;2.67;2.00;;;8.60;77.00;;;;;;5098034;28;20047;-66
2023/04/13 23:51:44;;;;;;;3.85;2.42;;;8.60;77.10;;;;;;5097715;28;20024;-66
2023/04/13 23:54:10;;;;;;;3.53;2.05;;;8.60;77.10;;;;;;5097958;28;20338;-66
2023/04/13 23:56:36;;;;;;;4.53;2.38;;;8.60;77.10;;;;;;5097601;28;20394;-66
2023/04/13 23:59:02;;;;;;;2.45;1.92;;;8.60;77.30;;;;;;5097795;28;20051;-66
